createdAt,value
2022-09-16T00:01:50.025Z,99861.00
2022-09-16T00:04:22.360Z,99861.81
2022-09-16T00:06:53.622Z,99867.09
2022-09-16T00:09:25.014Z,99860.09
2022-09-16T00:11:56.281Z,99864.25
2022-09-16T00:14:27.603Z,99867.84
2022-09-16T00:16:58.909Z,99875.88
2022-09-16T00:19:30.473Z,99871.41
2022-09-16T00:22:01.725Z,99880.31
2022-09-16T00:24:32.968Z,99870.66
2022-09-16T00:27:04.839Z,99866.31
2022-09-16T00:29:36.345Z,99875.19
2022-09-16T00:32:07.890Z,99870.06
2022-09-16T00:34:39.410Z,99858.69
2022-09-16T00:37:10.899Z,99863.09
2022-09-16T00:39:42.332Z,99851.69
2022-09-16T00:42:13.602Z,99866.50
2022-09-16T00:45:04.370Z,99842.16
2022-09-16T00:47:45.316Z,99865.00
2022-09-16T00:50:22.795Z,99865.25
2022-09-16T00:52:55.915Z,99862.94
2022-09-16T00:55:30.850Z,99858.94
2022-09-16T00:58:09.249Z,99857.41
2022-09-16T01:00:40.812Z,99858.84
2022-09-16T01:03:12.113Z,99866.81
2022-09-16T01:05:44.454Z,99865.13
2022-09-16T01:08:15.710Z,99862.69
2022-09-16T01:10:47.179Z,99860.84
2022-09-16T01:13:19.734Z,99858.28
2022-09-16T01:16:23.915Z,99853.81
2022-09-16T01:19:10.562Z,99864.38
2022-09-16T01:22:08.060Z,99850.13
2022-09-16T01:25:17.430Z,99861.47
2022-09-16T01:28:21.985Z,99868.50
2022-09-16T01:31:13.861Z,99872.09
2022-09-16T01:34:22.776Z,99857.97
2022-09-16T01:37:11.762Z,99862.38
2022-09-16T01:39:59.636Z,99858.75
2022-09-16T01:43:12.849Z,99855.94
2022-09-16T01:45:55.240Z,99857.53
2022-09-16T01:48:39.609Z,99864.63
2022-09-16T01:51:21.716Z,99873.47
2022-09-16T01:54:24.450Z,99880.41
2022-09-16T01:57:19.117Z,99878.69
2022-09-16T01:59:56.328Z,99869.63
2022-09-16T02:02:37.350Z,99858.28
2022-09-16T02:05:15.346Z,99855.53
2022-09-16T02:07:51.385Z,99859.81
2022-09-16T02:10:32.797Z,99858.13
2022-09-16T02:13:12.972Z,99854.66
2022-09-16T02:15:49.998Z,99863.53
2022-09-16T02:18:30.078Z,99853.78
2022-09-16T02:21:05.565Z,99845.88
2022-09-16T02:23:41.541Z,99841.72
2022-09-16T02:26:17.519Z,99858.41
2022-09-16T02:28:53.360Z,99849.59
2022-09-16T02:31:30.168Z,99850.63
2022-09-16T02:34:15.485Z,99839.28
2022-09-16T02:36:55.421Z,99838.53
2022-09-16T02:39:32.295Z,99842.38
2022-09-16T02:42:04.130Z,99839.59
2022-09-16T02:44:35.544Z,99836.03
2022-09-16T02:47:20.353Z,99849.31
2022-09-16T02:49:54.955Z,99841.28
2022-09-16T02:52:46.336Z,99855.94
2022-09-16T02:55:30.086Z,99840.78
2022-09-16T02:58:01.470Z,99831.41
2022-09-16T03:00:39.205Z,99842.69
2022-09-16T03:03:10.696Z,99847.34
2022-09-16T03:06:03.937Z,99851.97
2022-09-16T03:08:36.997Z,99854.00
2022-09-16T03:11:48.967Z,99847.44
2022-09-16T03:14:53.372Z,99847.56
2022-09-16T03:17:33.517Z,99849.38
2022-09-16T03:20:25.733Z,99847.63
2022-09-16T03:23:06.061Z,99851.19
2022-09-16T03:25:56.292Z,99849.38
2022-09-16T03:28:43.118Z,99844.06
2022-09-16T03:31:27.336Z,99859.69
2022-09-16T03:34:09.238Z,99870.91
2022-09-16T03:36:46.078Z,99862.84
2022-09-16T03:39:18.454Z,99840.72
2022-09-16T03:41:49.791Z,99840.63
2022-09-16T03:44:21.350Z,99840.63
2022-09-16T03:46:52.608Z,99832.66
2022-09-16T03:49:23.870Z,99852.16
2022-09-16T03:51:55.216Z,99837.38
2022-09-16T03:54:26.532Z,99835.53
2022-09-16T03:56:58.050Z,99840.13
2022-09-16T03:59:29.835Z,99831.50
2022-09-16T04:02:01.225Z,99824.81
2022-09-16T04:04:32.530Z,99836.97
2022-09-16T04:07:03.925Z,99848.41
2022-09-16T04:09:37.189Z,99839.81
2022-09-16T04:12:09.040Z,99842.00
2022-09-16T04:14:40.311Z,99846.34
2022-09-16T04:17:11.555Z,99840.06
2022-09-16T04:19:43.676Z,99831.34
2022-09-16T04:22:15.272Z,99830.53
2022-09-16T04:24:46.575Z,99838.28
2022-09-16T04:27:17.824Z,99827.81
2022-09-16T04:29:49.589Z,99817.25
2022-09-16T04:32:21.448Z,99820.78
2022-09-16T04:34:52.744Z,99834.75
2022-09-16T04:37:24.109Z,99831.22
2022-09-16T04:39:55.690Z,99814.50
2022-09-16T04:42:26.954Z,99814.38
2022-09-16T04:44:58.281Z,99803.97
2022-09-16T04:47:29.748Z,99800.56
2022-09-16T04:50:01.017Z,99812.03
2022-09-16T04:52:32.419Z,99808.06
2022-09-16T04:55:03.925Z,99813.69
2022-09-16T04:57:35.249Z,99815.63
2022-09-16T05:00:07.283Z,99793.91
2022-09-16T05:02:38.541Z,99812.44
2022-09-16T05:05:09.804Z,99808.19
2022-09-16T05:07:41.041Z,99804.97
2022-09-16T05:10:12.405Z,99804.06
2022-09-16T05:12:47.882Z,99808.50
2022-09-16T05:15:21.324Z,99805.88
2022-09-16T05:17:53.144Z,99799.72
2022-09-16T05:20:24.682Z,99808.31
2022-09-16T05:22:56.020Z,99786.09
2022-09-16T05:25:27.282Z,99805.09
2022-09-16T05:27:58.536Z,99788.50
2022-09-16T05:30:29.880Z,99795.44
2022-09-16T05:33:01.368Z,99793.09
2022-09-16T05:35:32.635Z,99800.09
2022-09-16T05:38:04.014Z,99791.31
2022-09-16T05:40:35.388Z,99798.50
2022-09-16T05:43:06.692Z,99799.47
2022-09-16T05:45:38.513Z,99782.94
2022-09-16T05:48:09.854Z,99791.59
2022-09-16T05:50:41.120Z,99802.78
2022-09-16T05:53:12.413Z,99801.53
2022-09-16T05:55:43.982Z,99782.84
2022-09-16T05:58:15.348Z,99805.72
2022-09-16T06:00:46.610Z,99788.47
2022-09-16T06:03:18.423Z,99781.34
2022-09-16T06:05:49.840Z,99765.34
2022-09-16T06:08:21.213Z,99796.97
2022-09-16T06:10:52.542Z,99790.94
2022-09-16T06:13:23.815Z,99788.22
2022-09-16T06:15:55.264Z,99793.91
2022-09-16T06:18:28.666Z,99802.81
2022-09-16T06:21:05.548Z,99798.69
2022-09-16T06:23:38.373Z,99804.00
2022-09-16T06:26:13.980Z,99798.25
2022-09-16T06:28:46.707Z,99790.56
2022-09-16T06:31:26.256Z,99798.75
2022-09-16T06:33:58.200Z,99794.31
2022-09-16T06:36:33.496Z,99790.41
2022-09-16T06:39:06.460Z,99796.44
2022-09-16T06:41:37.737Z,99794.53
2022-09-16T06:44:09.242Z,99785.84
2022-09-16T06:46:40.974Z,99784.06
2022-09-16T06:49:12.945Z,99793.72
2022-09-16T06:51:44.412Z,99778.19
2022-09-16T06:54:15.797Z,99758.53
2022-09-16T06:56:47.077Z,99793.09
2022-09-16T06:59:18.481Z,99780.78
2022-09-16T07:01:49.849Z,99786.72
2022-09-16T07:04:21.176Z,99779.16
2022-09-16T07:09:43.920Z,99787.44
2022-09-16T07:12:18.910Z,99787.25
2022-09-16T07:14:50.984Z,99788.78
2022-09-16T07:17:25.907Z,99788.41
2022-09-16T07:19:57.282Z,99785.19
2022-09-16T07:22:31.147Z,99746.53
2022-09-16T07:25:02.484Z,99796.38
2022-09-16T07:27:34.020Z,99776.44
2022-09-16T07:30:08.938Z,99782.59
2022-09-16T07:32:40.566Z,99781.53
2022-09-16T07:35:11.957Z,99789.09
2022-09-16T07:37:43.268Z,99783.34
2022-09-16T07:40:14.814Z,99782.97
2022-09-16T07:42:46.116Z,99771.34
2022-09-16T07:45:17.458Z,99768.47
2022-09-16T07:47:49.666Z,99772.66
2022-09-16T07:50:21.053Z,99779.94
2022-09-16T07:52:56.037Z,99773.34
2022-09-16T07:55:27.583Z,99778.88
2022-09-16T07:57:58.913Z,99796.09
2022-09-16T08:00:30.216Z,99789.41
2022-09-16T08:03:01.550Z,99792.41
2022-09-16T08:05:32.868Z,99794.56
2022-09-16T08:08:05.230Z,99790.69
2022-09-16T08:10:39.710Z,99793.75
2022-09-16T08:13:11.094Z,99795.25
2022-09-16T08:15:42.402Z,99799.03
2022-09-16T08:18:14.143Z,99798.59
2022-09-16T08:20:45.416Z,99788.97
2022-09-16T08:23:16.976Z,99810.06
2022-09-16T08:25:56.378Z,99810.44
2022-09-16T08:28:39.824Z,99800.94
2022-09-16T08:31:20.914Z,99798.53
2022-09-16T08:33:52.363Z,99814.75
2022-09-16T08:36:25.001Z,99800.25
2022-09-16T08:38:57.312Z,99804.41
2022-09-16T08:41:37.850Z,99790.31
2022-09-16T08:44:16.772Z,99794.38
2022-09-16T08:46:59.632Z,99789.22
2022-09-16T08:49:46.755Z,99792.22
2022-09-16T08:52:32.648Z,99788.75
2022-09-16T08:55:07.054Z,99788.13
2022-09-16T08:57:51.823Z,99757.72
2022-09-16T09:00:23.349Z,99787.56
2022-09-16T09:02:58.795Z,99789.97
2022-09-16T09:05:36.277Z,99784.44
2022-09-16T09:08:39.817Z,99782.53
2022-09-16T09:11:35.418Z,99790.78
2022-09-16T09:14:27.617Z,99787.28
2022-09-16T09:17:27.097Z,99800.25
2022-09-16T09:20:13.609Z,99793.91
2022-09-16T09:22:59.369Z,99789.69
2022-09-16T09:25:36.861Z,99797.94
2022-09-16T09:28:45.788Z,99798.88
2022-09-16T09:31:45.213Z,99785.56
2022-09-16T09:34:41.756Z,99783.06
2022-09-16T09:37:19.363Z,99785.38
2022-09-16T09:40:20.658Z,99770.16
2022-09-16T09:43:02.639Z,99778.41
2022-09-16T09:45:56.304Z,99783.22
2022-09-16T09:48:46.059Z,99753.88
2022-09-16T09:51:27.545Z,99774.16
2022-09-16T09:54:06.062Z,99778.19
2022-09-16T09:56:44.038Z,99762.91
2022-09-16T09:59:52.253Z,99754.22
2022-09-16T10:02:24.080Z,99768.16
2022-09-16T10:04:55.481Z,99767.06
2022-09-16T10:07:28.549Z,99767.97
2022-09-16T10:10:11.248Z,99763.41
2022-09-16T10:12:43.075Z,99762.06
2022-09-16T10:15:34.157Z,99760.31
2022-09-16T10:18:24.292Z,99766.72
2022-09-16T10:21:16.772Z,99756.03
2022-09-16T10:23:58.391Z,99758.09
2022-09-16T10:26:29.770Z,99743.06
2022-09-16T10:29:13.438Z,99749.13
2022-09-16T10:31:45.299Z,99741.00
2022-09-16T10:34:40.290Z,99764.31
2022-09-16T10:37:12.646Z,99804.78
2022-09-16T10:39:51.495Z,99776.63
2022-09-16T10:42:25.691Z,99762.53
2022-09-16T10:45:13.824Z,99754.72
2022-09-16T10:47:50.970Z,99772.75
2022-09-16T10:50:22.799Z,99753.94
2022-09-16T10:52:54.973Z,99749.19
2022-09-16T10:55:35.226Z,99758.72
2022-09-16T10:58:26.781Z,99750.00
2022-09-16T11:00:58.161Z,99752.75
2022-09-16T11:03:46.736Z,99745.97
2022-09-16T11:06:35.645Z,99743.03
2022-09-16T11:09:44.685Z,99724.34
2022-09-16T11:12:47.878Z,99733.31
2022-09-16T11:15:56.730Z,99732.44
2022-09-16T11:18:41.444Z,99726.22
2022-09-16T11:21:33.016Z,99728.84
2022-09-16T11:24:20.211Z,99725.41
2022-09-16T11:26:59.489Z,99721.81
2022-09-16T11:29:42.532Z,99721.91
2022-09-16T11:32:44.641Z,99724.59
2022-09-16T11:35:46.615Z,99722.00
2022-09-16T11:38:20.636Z,99706.69
2022-09-16T11:41:03.729Z,99707.53
2022-09-16T11:43:52.386Z,99696.94
2022-09-16T11:46:58.965Z,99689.84
2022-09-16T11:50:08.023Z,99674.44
2022-09-16T11:53:04.156Z,99671.06
2022-09-16T11:55:49.309Z,99697.56
2022-09-16T11:58:30.264Z,99715.91
2022-09-16T12:01:26.100Z,99752.44
2022-09-16T12:04:24.516Z,99723.53
2022-09-16T12:07:14.619Z,99732.78
2022-09-16T12:09:55.668Z,99717.97
2022-09-16T12:12:37.225Z,99708.19
2022-09-16T12:15:47.712Z,99707.06
2022-09-16T12:18:32.808Z,99691.34
2022-09-16T12:21:25.363Z,99701.28
2022-09-16T12:24:06.827Z,99694.00
2022-09-16T12:26:45.157Z,99693.78
2022-09-16T12:29:26.576Z,99676.88
2022-09-16T12:32:13.127Z,99689.09
2022-09-16T12:34:49.190Z,99692.31
2022-09-16T12:37:33.665Z,99689.69
2022-09-16T12:40:13.004Z,99685.53
2022-09-16T12:42:59.335Z,99674.81
2022-09-16T12:45:57.173Z,99672.00
2022-09-16T12:48:40.108Z,99669.69
2022-09-16T12:51:32.178Z,99665.81
2022-09-16T12:54:51.243Z,99654.84
2022-09-16T12:57:55.004Z,99651.22
2022-09-16T13:00:39.401Z,99652.56
2022-09-16T13:03:17.809Z,99656.69
2022-09-16T13:05:52.037Z,99662.59
2022-09-16T13:08:25.778Z,99667.97
2022-09-16T13:11:25.570Z,99673.31
2022-09-16T13:13:59.222Z,99667.56
2022-09-16T13:16:36.112Z,99690.66
2022-09-16T13:19:22.274Z,99692.38
2022-09-16T13:22:15.336Z,99690.91
2022-09-16T13:24:54.760Z,99688.88
2022-09-16T13:27:34.302Z,99679.72
2022-09-16T13:30:26.213Z,99678.78
2022-09-16T13:33:01.473Z,99666.91
2022-09-16T13:35:41.927Z,99682.47
2022-09-16T13:38:19.222Z,99675.09
2022-09-16T13:40:59.968Z,99654.69
2022-09-16T13:43:34.054Z,99663.56
2022-09-16T13:46:09.952Z,99652.66
2022-09-16T13:49:11.023Z,99655.75
2022-09-16T13:51:45.322Z,99645.38
2022-09-16T13:54:30.871Z,99650.38
2022-09-16T13:57:12.924Z,99651.69
2022-09-16T14:00:15.728Z,99656.88
2022-09-16T14:02:47.281Z,99658.69
2022-09-16T14:05:36.430Z,99663.31
2022-09-16T14:08:51.510Z,99659.03
2022-09-16T14:11:49.464Z,99657.44
2022-09-16T14:17:20.787Z,99667.00
2022-09-16T14:20:00.120Z,99665.53
2022-09-16T14:22:31.964Z,99653.72
2022-09-16T14:25:19.286Z,99639.00
2022-09-16T14:28:30.405Z,99618.03
2022-09-16T14:31:06.545Z,99585.84
2022-09-16T14:33:40.539Z,99577.72
2022-09-16T14:36:32.558Z,99603.66
2022-09-16T14:39:06.378Z,99598.72
2022-09-16T14:41:43.333Z,99563.91
2022-09-16T14:44:20.876Z,99579.53
2022-09-16T14:47:39.793Z,99574.34
2022-09-16T14:50:28.309Z,99583.44
2022-09-16T14:53:01.890Z,99580.00
2022-09-16T14:55:37.534Z,99575.63
2022-09-16T14:58:10.843Z,99552.94
2022-09-16T15:01:09.034Z,99551.59
2022-09-16T15:03:52.883Z,99546.22
2022-09-16T15:06:28.718Z,99554.94
2022-09-16T15:09:30.722Z,99551.34
2022-09-16T15:12:03.067Z,99543.44
2022-09-16T15:14:38.084Z,99496.81
2022-09-16T15:17:09.559Z,99500.59
2022-09-16T15:19:41.659Z,99503.25
2022-09-16T15:22:15.120Z,99511.22
2022-09-16T15:24:52.718Z,99486.75
2022-09-16T15:27:26.986Z,99497.94
2022-09-16T15:30:00.932Z,99490.75
2022-09-16T15:32:43.663Z,99490.69
2022-09-16T15:35:24.028Z,99496.69
2022-09-16T15:37:55.801Z,99494.81
2022-09-16T15:40:27.121Z,99510.72
2022-09-16T15:43:13.806Z,99500.88
2022-09-16T15:45:56.124Z,99501.66
2022-09-16T15:48:34.253Z,99531.91
2022-09-16T15:51:29.206Z,99518.63
2022-09-16T15:54:17.096Z,99511.50
2022-09-16T15:57:26.227Z,99512.97
2022-09-16T16:00:12.221Z,99521.88
2022-09-16T16:02:49.469Z,99504.47
2022-09-16T16:05:23.724Z,99523.59
2022-09-16T16:07:58.649Z,99521.81
2022-09-16T16:10:32.878Z,99524.34
2022-09-16T16:13:04.641Z,99519.81
2022-09-16T16:15:38.703Z,99511.56
2022-09-16T16:18:10.728Z,99494.63
2022-09-16T16:20:42.092Z,99518.34
2022-09-16T16:23:14.715Z,99520.88
2022-09-16T16:25:48.172Z,99514.63
2022-09-16T16:28:19.465Z,99484.91
2022-09-16T16:30:50.985Z,99509.25
2022-09-16T16:33:22.454Z,99515.38
2022-09-16T16:35:53.763Z,99492.28
2022-09-16T16:38:25.045Z,99515.22
2022-09-16T16:40:56.427Z,99517.88
2022-09-16T16:43:29.721Z,99509.78
2022-09-16T16:46:01.098Z,99495.94
2022-09-16T16:48:32.490Z,99514.97
2022-09-16T16:51:07.622Z,99517.53
2022-09-16T16:53:39.565Z,99500.56
2022-09-16T16:56:15.041Z,99512.94
2022-09-16T16:58:46.976Z,99500.06
2022-09-16T17:01:20.040Z,99516.66
2022-09-16T17:03:51.418Z,99546.59
2022-09-16T17:06:22.782Z,99542.13
2022-09-16T17:08:54.727Z,99540.41
2022-09-16T17:11:26.669Z,99528.75
2022-09-16T17:14:00.911Z,99537.59
2022-09-16T17:16:33.679Z,99548.31
2022-09-16T17:19:04.978Z,99549.19
2022-09-16T17:21:36.555Z,99543.84
2022-09-16T17:24:08.002Z,99558.03
2022-09-16T17:26:39.488Z,99553.63
2022-09-16T17:29:15.750Z,99538.13
2022-09-16T17:31:47.461Z,99553.91
2022-09-16T17:34:18.870Z,99567.88
2022-09-16T17:36:50.312Z,99580.03
2022-09-16T17:39:22.542Z,99574.06
2022-09-16T17:41:56.441Z,99581.97
2022-09-16T17:44:27.893Z,99591.75
2022-09-16T17:46:59.192Z,99590.22
2022-09-16T17:49:30.998Z,99588.38
2022-09-16T17:52:02.661Z,99593.44
2022-09-16T17:54:33.980Z,99591.03
2022-09-16T17:57:05.277Z,99596.34
2022-09-16T17:59:36.554Z,99606.88
2022-09-16T18:02:09.796Z,99600.69
2022-09-16T18:04:43.135Z,99603.28
2022-09-16T18:07:14.632Z,99598.22
2022-09-16T18:09:46.030Z,99603.22
2022-09-16T18:12:17.301Z,99605.06
2022-09-16T18:14:48.706Z,99606.72
2022-09-16T18:17:20.002Z,99603.34
2022-09-16T18:19:51.546Z,99613.91
2022-09-16T18:22:22.866Z,99620.22
2022-09-16T18:24:54.186Z,99622.09
2022-09-16T18:27:25.741Z,99612.44
2022-09-16T18:29:57.731Z,99619.25
2022-09-16T18:32:31.668Z,99614.19
2022-09-16T18:35:03.103Z,99619.50
2022-09-16T18:37:34.448Z,99629.75
2022-09-16T18:40:06.511Z,99629.03
2022-09-16T18:42:37.832Z,99618.50
2022-09-16T18:45:09.433Z,99627.16
2022-09-16T18:47:40.874Z,99628.28
2022-09-16T18:50:12.362Z,99650.19
2022-09-16T18:52:43.760Z,99642.25
2022-09-16T18:55:15.934Z,99650.19
2022-09-16T18:57:47.221Z,99654.63
2022-09-16T19:00:18.562Z,99633.84
2022-09-16T19:02:49.941Z,99640.72
2022-09-16T19:05:22.297Z,99640.28
2022-09-16T19:07:53.601Z,99656.56
2022-09-16T19:10:26.126Z,99649.69
2022-09-16T19:12:57.440Z,99653.03
2022-09-16T19:15:29.081Z,99652.28
2022-09-16T19:18:00.397Z,99658.47
2022-09-16T19:20:31.719Z,99656.69
2022-09-16T19:23:02.996Z,99659.28
2022-09-16T19:25:34.294Z,99677.91
2022-09-16T19:28:05.765Z,99666.41
2022-09-16T19:30:37.080Z,99670.00
2022-09-16T19:33:08.419Z,99671.00
2022-09-16T19:35:39.702Z,99675.66
2022-09-16T19:38:11.009Z,99663.63
2022-09-16T19:40:42.276Z,99669.06
2022-09-16T19:43:14.167Z,99666.66
2022-09-16T19:45:45.524Z,99689.47
2022-09-16T19:48:16.851Z,99672.03
2022-09-16T19:50:53.912Z,99675.69
2022-09-16T19:53:26.562Z,99666.59
2022-09-16T19:56:03.800Z,99684.91
2022-09-16T19:58:37.195Z,99691.22
2022-09-16T20:01:11.608Z,99694.81
2022-09-16T20:03:45.866Z,99706.38
2022-09-16T20:06:27.841Z,99700.06
2022-09-16T20:09:00.990Z,99685.97
2022-09-16T20:11:34.818Z,99702.59
2022-09-16T20:14:13.428Z,99700.81
2022-09-16T20:16:44.986Z,99700.88
2022-09-16T20:19:18.213Z,99711.13
2022-09-16T20:21:49.565Z,99707.56
2022-09-16T20:24:23.526Z,99704.63
2022-09-16T20:26:55.955Z,99687.13
2022-09-16T20:29:27.264Z,99710.50
2022-09-16T20:31:58.756Z,99698.25
2022-09-16T20:34:30.057Z,99702.66
2022-09-16T20:37:01.319Z,99720.03
2022-09-16T20:39:33.009Z,99708.53
2022-09-16T20:42:04.484Z,99719.91
2022-09-16T20:44:35.844Z,99719.03
2022-09-16T20:47:07.092Z,99712.81
2022-09-16T20:49:38.541Z,99713.06
2022-09-16T20:52:09.811Z,99727.97
2022-09-16T20:54:41.084Z,99721.03
2022-09-16T20:57:12.393Z,99729.69
2022-09-16T20:59:43.773Z,99727.03
2022-09-16T21:02:15.284Z,99724.63
2022-09-16T21:04:46.587Z,99722.88
2022-09-16T21:07:17.904Z,99737.69
2022-09-16T21:09:49.168Z,99730.69
2022-09-16T21:12:20.538Z,99728.88
2022-09-16T21:14:51.789Z,99743.94
2022-09-16T21:17:23.192Z,99734.47
2022-09-16T21:19:54.757Z,99744.19
2022-09-16T21:22:26.088Z,99729.50
2022-09-16T21:24:57.641Z,99733.03
2022-09-16T21:27:31.357Z,99736.00
2022-09-16T21:30:03.733Z,99739.47
2022-09-16T21:32:34.988Z,99752.72
2022-09-16T21:35:06.505Z,99747.31
2022-09-16T21:37:37.781Z,99745.28
2022-09-16T21:40:10.118Z,99746.03
2022-09-16T21:42:41.469Z,99752.09
2022-09-16T21:45:12.850Z,99749.38
2022-09-16T21:47:44.312Z,99749.38
2022-09-16T21:50:15.789Z,99753.66
2022-09-16T21:52:47.041Z,99749.13
2022-09-16T21:55:18.314Z,99765.75
2022-09-16T21:57:49.545Z,99765.00
2022-09-16T22:00:20.829Z,99763.06
2022-09-16T22:02:52.077Z,99761.97
2022-09-16T22:05:23.522Z,99768.69
2022-09-16T22:07:54.894Z,99771.91
2022-09-16T22:10:27.038Z,99744.00
2022-09-16T22:12:58.837Z,99766.28
2022-09-16T22:15:30.142Z,99768.00
2022-09-16T22:18:02.259Z,99763.47
2022-09-16T22:20:33.563Z,99773.19
2022-09-16T22:23:04.820Z,99767.13
2022-09-16T22:25:36.454Z,99760.88
2022-09-16T22:28:07.901Z,99772.06
2022-09-16T22:30:39.488Z,99773.81
2022-09-16T22:33:10.768Z,99779.25
2022-09-16T22:35:42.036Z,99762.06
2022-09-16T22:38:13.307Z,99782.00
2022-09-16T22:40:44.560Z,99777.78
2022-09-16T22:43:15.845Z,99783.09
2022-09-16T22:45:47.090Z,99781.38
2022-09-16T22:48:18.848Z,99790.28
2022-09-16T22:50:57.327Z,99788.75
2022-09-16T22:53:30.282Z,99793.16
2022-09-16T22:56:04.805Z,99797.59
2022-09-16T22:58:36.104Z,99796.69
2022-09-16T23:01:19.524Z,99781.88
2022-09-16T23:03:54.464Z,99789.81
2022-09-16T23:06:27.396Z,99788.25
2022-09-16T23:08:59.203Z,99803.19
2022-09-16T23:11:32.659Z,99804.91
2022-09-16T23:14:06.219Z,99803.19
2022-09-16T23:16:38.387Z,99801.25
2022-09-16T23:19:11.488Z,99807.31
2022-09-16T23:21:43.228Z,99807.25
2022-09-16T23:24:17.378Z,99796.88
2022-09-16T23:26:49.188Z,99811.72
2022-09-16T23:29:20.538Z,99802.13
2022-09-16T23:31:51.784Z,99804.78
2022-09-16T23:34:23.165Z,99783.13
2022-09-16T23:36:54.438Z,99800.53
2022-09-16T23:39:25.874Z,99794.63
2022-09-16T23:41:57.200Z,99803.31
2022-09-16T23:44:28.566Z,99809.50
2022-09-16T23:46:59.886Z,99813.03
2022-09-16T23:49:31.257Z,99811.28
2022-09-16T23:52:02.780Z,99813.28
2022-09-16T23:54:34.684Z,99801.81
2022-09-16T23:57:06.424Z,99810.50
2022-09-16T23:59:37.710Z,99812.28
